Time;durP1;ratioP1;P1;durP2;ratioP2;P2;SDS_P1;SDS_P2;PMS_P1;PMS_P2;Temp;Humidity;BMP_temperature;BMP_pressure;BME280_temperature;BME280_humidity;BME280_pressure;Samples;Min_cycle;Max_cycle;Signal;HPM_P1;HPM_P2
2021/06/12 00:00:40;;;;;;;12.48;8.88;;;;;;;15.51;73.92;95876.44;4901016;29;20048;-73
2021/06/12 00:03:16;;;;;;;15.27;9.00;;;;;;;15.55;73.95;95871.34;4895247;29;20049;-73
2021/06/12 00:05:42;;;;;;;13.00;8.82;;;;;;;15.51;73.95;95868.47;4895522;29;20530;-74
2021/06/12 00:08:07;;;;;;;13.35;8.63;;;;;;;15.56;74.09;95870.28;4899057;29;20044;-74
2021/06/12 00:10:35;;;;;;;14.52;9.15;;;;;;;15.52;73.92;95863.97;4919436;29;20048;-74
2021/06/12 00:13:02;;;;;;;11.50;8.63;;;;;;;15.50;74.23;95868.78;4895436;29;20044;-74
2021/06/12 00:15:28;;;;;;;13.25;8.65;;;;;;;15.51;74.00;95867.69;4895244;29;20040;-74
2021/06/12 00:17:54;;;;;;;10.90;8.10;;;;;;;15.55;73.96;95868.69;4895260;29;20049;-74
2021/06/12 00:20:22;;;;;;;11.73;8.55;;;;;;;15.50;74.13;95866.94;4904553;29;20039;-74
2021/06/12 00:22:48;;;;;;;9.20;7.97;;;;;;;15.49;74.03;95865.34;4900895;29;20186;-74
2021/06/12 00:25:16;;;;;;;12.63;8.20;;;;;;;15.51;73.90;95863.19;4913437;29;20045;-74
2021/06/12 00:27:42;;;;;;;13.30;8.52;;;;;;;15.53;73.86;95865.53;4906900;29;20047;-74
2021/06/12 00:30:10;;;;;;;10.27;8.32;;;;;;;15.39;74.40;95863.66;4916035;29;20525;-74
2021/06/12 00:32:35;;;;;;;13.15;8.98;;;;;;;15.46;74.11;95862.47;4915427;29;20058;-74
2021/06/12 00:35:02;;;;;;;11.18;8.68;;;;;;;15.42;74.12;95860.41;4912926;29;20044;-74
2021/06/12 00:37:27;;;;;;;13.35;8.55;;;;;;;15.40;74.28;95861.78;4912671;29;20091;-74
2021/06/12 00:39:53;;;;;;;11.05;8.10;;;;;;;15.42;74.20;95859.63;4894892;29;20045;-74
2021/06/12 00:42:19;;;;;;;13.52;8.23;;;;;;;15.39;74.27;95866.28;4910248;29;20052;-74
2021/06/12 00:44:45;;;;;;;12.52;8.18;;;;;;;15.38;73.87;95864.72;4895273;29;20411;-74
2021/06/12 00:47:11;;;;;;;10.07;8.18;;;;;;;15.34;74.29;95863.75;4899017;29;20033;-75
2021/06/12 00:49:36;;;;;;;15.35;8.93;;;;;;;15.37;74.24;95860.50;4908491;29;20166;-75
2021/06/12 00:52:02;;;;;;;12.15;8.32;;;;;;;15.31;74.63;95864.31;4927328;29;20047;-74
2021/06/12 00:54:28;;;;;;;10.93;8.60;;;;;;;15.28;74.82;95859.59;4917798;29;20067;-74
2021/06/12 00:56:54;;;;;;;10.65;8.25;;;;;;;15.33;74.60;95864.81;4905401;29;20135;-75
2021/06/12 00:59:21;;;;;;;11.02;8.57;;;;;;;15.28;74.78;95864.88;4918812;29;20039;-75
2021/06/12 01:01:46;;;;;;;11.23;8.45;;;;;;;15.30;74.33;95862.75;4898590;29;20414;-74
2021/06/12 01:04:12;;;;;;;10.48;8.35;;;;;;;15.24;74.49;95858.59;4900682;29;20057;-74
2021/06/12 01:06:37;;;;;;;13.02;8.18;;;;;;;15.26;74.96;95869.72;4898046;29;20045;-74
2021/06/12 01:09:03;;;;;;;10.68;7.72;;;;;;;15.23;74.67;95862.34;4907760;29;20100;-74
2021/06/12 01:11:31;;;;;;;10.65;8.00;;;;;;;15.15;75.18;95855.81;4934372;29;20040;-74
2021/06/12 01:14:10;;;;;;;10.40;8.32;;;;;;;15.19;74.94;95856.81;4907827;29;20036;-74
2021/06/12 01:16:39;;;;;;;13.00;8.40;;;;;;;15.19;75.06;95856.03;4908819;29;20040;-74
2021/06/12 01:19:42;;;;;;;10.80;8.18;;;;;;;15.15;75.04;95855.03;4919842;29;20039;-74
2021/06/12 01:22:22;;;;;;;10.98;8.05;;;;;;;15.22;75.12;95855.44;4905409;29;20055;-74
2021/06/12 01:25:14;;;;;;;11.85;8.52;;;;;;;15.15;75.32;95855.81;4905694;29;20041;-74
2021/06/12 01:27:55;;;;;;;11.38;8.00;;;;;;;15.21;75.05;95848.56;4898143;29;20052;-74
2021/06/12 01:30:29;;;;;;;10.80;7.90;;;;;;;15.22;74.85;95850.16;4928967;29;20067;-74
2021/06/12 01:33:10;;;;;;;11.25;8.00;;;;;;;15.20;75.10;95854.94;4899866;29;20056;-74
2021/06/12 01:35:56;;;;;;;11.50;8.43;;;;;;;15.19;75.30;95845.44;4924253;29;20040;-74
2021/06/12 01:38:28;;;;;;;10.93;7.53;;;;;;;15.23;75.06;95862.34;4917247;29;20057;-73
2021/06/12 01:40:57;;;;;;;9.77;7.60;;;;;;;15.21;74.90;95853.88;4913607;29;20040;-73
2021/06/12 01:43:24;;;;;;;10.77;7.95;;;;;;;15.22;75.24;95855.44;4898173;29;20438;-74
2021/06/12 01:45:51;;;;;;;11.60;8.30;;;;;;;15.20;75.02;95852.28;4898052;29;20350;-74
2021/06/12 01:48:18;;;;;;;11.98;8.43;;;;;;;15.24;74.82;95854.09;4931160;29;20088;-74
2021/06/12 01:50:45;;;;;;;10.48;8.23;;;;;;;15.20;75.04;95841.69;4928856;29;20545;-74
2021/06/12 01:53:15;;;;;;;13.43;8.40;;;;;;;15.17;75.17;95852.88;4914497;29;20103;-74
2021/06/12 01:55:41;;;;;;;10.60;8.18;;;;;;;15.15;75.21;95847.09;4920818;29;20040;-74
2021/06/12 01:58:10;;;;;;;10.82;8.45;;;;;;;15.13;75.29;95847.38;4895772;29;20044;-74
2021/06/12 02:00:37;;;;;;;9.80;7.80;;;;;;;15.15;75.01;95844.44;4909926;29;20046;-73
2021/06/12 02:03:03;;;;;;;11.75;8.07;;;;;;;15.16;74.68;95840.72;4902056;29;20109;-74
2021/06/12 02:05:29;;;;;;;9.77;8.05;;;;;;;15.04;75.12;95834.00;4898594;29;20491;-73
2021/06/12 02:07:57;;;;;;;10.63;8.00;;;;;;;15.07;75.16;95838.72;4906754;29;20073;-73
2021/06/12 02:10:29;;;;;;;10.45;8.05;;;;;;;15.02;75.24;95841.44;4906697;29;20122;-73
2021/06/12 02:12:55;;;;;;;10.70;7.40;;;;;;;14.98;75.34;95845.75;4919722;29;20039;-74
2021/06/12 02:15:22;;;;;;;10.18;8.02;;;;;;;14.91;75.78;95850.63;4934094;29;20079;-74
2021/06/12 02:17:49;;;;;;;11.60;8.07;;;;;;;14.89;75.66;95842.19;4929297;29;20040;-74
2021/06/12 02:20:16;;;;;;;10.43;7.72;;;;;;;14.94;75.43;95844.75;4915221;29;20044;-73
2021/06/12 02:22:44;;;;;;;11.55;7.57;;;;;;;14.89;75.71;95847.47;4898509;29;20051;-74
2021/06/12 02:25:12;;;;;;;12.13;8.20;;;;;;;14.94;75.33;95838.66;4897387;29;20147;-74
2021/06/12 02:27:41;;;;;;;15.07;8.40;;;;;;;14.89;75.34;95836.88;4897165;29;20040;-74
2021/06/12 02:30:07;;;;;;;12.35;8.23;;;;;;;14.86;75.35;95843.53;4925601;29;20518;-74
2021/06/12 02:32:43;;;;;;;10.25;7.95;;;;;;;14.78;75.97;95836.22;4929979;29;20074;-74
2021/06/12 02:35:10;;;;;;;10.98;8.32;;;;;;;14.77;75.90;95833.88;4927499;29;20059;-74
2021/06/12 02:37:38;;;;;;;11.48;7.55;;;;;;;14.73;75.87;95834.47;4931261;29;20074;-74
2021/06/12 02:40:05;;;;;;;10.35;8.13;;;;;;;14.68;76.25;95837.19;4896710;29;20045;-74
2021/06/12 02:42:32;;;;;;;9.65;7.93;;;;;;;14.72;75.93;95837.41;4896883;29;20101;-73
2021/06/12 02:44:57;;;;;;;10.77;7.82;;;;;;;14.76;75.81;95842.91;4897053;29;20053;-74
2021/06/12 02:47:26;;;;;;;10.90;7.68;;;;;;;14.67;76.07;95830.31;4899786;29;20051;-74
2021/06/12 02:49:56;;;;;;;11.63;7.82;;;;;;;14.69;75.85;95828.16;4900570;29;20044;-73
2021/06/12 02:52:28;;;;;;;9.45;7.57;;;;;;;14.66;76.15;95834.03;4914903;29;20566;-74
2021/06/12 02:54:57;;;;;;;14.90;8.23;;;;;;;14.61;76.34;95826.16;4904000;29;20041;-73
2021/06/12 02:57:25;;;;;;;10.63;8.10;;;;;;;14.54;76.31;95826.50;4921287;29;20044;-73
2021/06/12 02:59:52;;;;;;;11.50;8.25;;;;;;;14.56;76.18;95834.16;4910505;29;20040;-74
2021/06/12 03:02:20;;;;;;;9.77;7.93;;;;;;;14.58;76.16;95826.69;4907609;29;20044;-74
2021/06/12 03:04:47;;;;;;;10.40;7.78;;;;;;;14.47;76.63;95836.66;4896576;29;20041;-73
2021/06/12 03:07:14;;;;;;;11.55;8.00;;;;;;;14.46;76.53;95834.28;4910400;29;20071;-74
2021/06/12 03:09:43;;;;;;;9.38;7.95;;;;;;;14.52;75.98;95830.50;4922595;29;20047;-74
2021/06/12 03:12:10;;;;;;;10.68;7.85;;;;;;;14.52;76.34;95838.44;4906832;29;20108;-74
2021/06/12 03:14:38;;;;;;;9.43;7.57;;;;;;;14.46;76.71;95834.28;4896502;29;20127;-74
2021/06/12 03:17:06;;;;;;;12.15;7.93;;;;;;;14.46;76.52;95840.38;4899794;29;20059;-73
2021/06/12 03:19:32;;;;;;;13.05;8.10;;;;;;;14.43;76.69;95834.88;4917163;29;20396;-74
2021/06/12 03:21:58;;;;;;;10.85;8.13;;;;;;;14.46;76.35;95835.06;4908613;29;20043;-73
2021/06/12 03:24:26;;;;;;;12.57;7.70;;;;;;;14.45;76.40;95832.72;4907850;29;20040;-74
2021/06/12 03:26:53;;;;;;;11.20;7.85;;;;;;;14.50;76.13;95835.31;4909653;29;20048;-73
2021/06/12 03:29:18;;;;;;;10.82;7.68;;;;;;;14.44;76.21;95831.13;4912592;29;20043;-74
2021/06/12 03:31:44;;;;;;;9.25;7.25;;;;;;;14.44;76.14;95831.13;4924994;29;20119;-74
2021/06/12 03:34:10;;;;;;;9.65;7.90;;;;;;;14.50;75.88;95835.31;4912443;29;20040;-73
2021/06/12 03:36:35;;;;;;;11.80;7.68;;;;;;;14.44;76.32;95833.78;4913825;29;20545;-74
2021/06/12 03:39:02;;;;;;;12.07;7.28;;;;;;;14.51;75.89;95834.22;4903401;29;20048;-74
2021/06/12 03:41:28;;;;;;;12.07;7.68;;;;;;;14.47;75.99;95835.88;4920530;29;20054;-73
2021/06/12 03:43:54;;;;;;;11.13;7.60;;;;;;;14.53;75.77;95834.72;4915593;29;20407;-73
2021/06/12 03:46:20;;;;;;;12.27;8.30;;;;;;;14.49;75.93;95833.72;4897838;29;20044;-73
2021/06/12 03:48:48;;;;;;;10.05;7.88;;;;;;;14.50;76.20;95841.38;4907164;29;20043;-73
2021/06/12 03:51:17;;;;;;;10.30;7.47;;;;;;;14.57;75.79;95846.31;4912608;29;20106;-74
2021/06/12 03:53:44;;;;;;;11.60;8.35;;;;;;;14.64;75.41;95840.69;4910663;29;20055;-74
2021/06/12 03:56:15;;;;;;;9.63;6.88;;;;;;;14.63;75.56;95850.50;4908078;29;20048;-73
2021/06/12 03:58:43;;;;;;;10.20;7.47;;;;;;;14.70;75.00;95844.84;4895578;29;20052;-73
2021/06/12 04:01:12;;;;;;;8.48;7.15;;;;;;;14.71;75.54;95852.50;4921557;29;20048;-73
2021/06/12 04:03:38;;;;;;;11.07;7.55;;;;;;;14.71;75.31;95846.41;4912324;29;20048;-74
2021/06/12 04:06:04;;;;;;;9.13;7.28;;;;;;;14.71;75.23;95852.50;4914548;29;20044;-73
2021/06/12 04:08:30;;;;;;;10.77;7.40;;;;;;;14.75;75.08;95847.41;4900072;29;20569;-74
2021/06/12 04:10:55;;;;;;;10.82;7.78;;;;;;;14.73;75.52;95855.66;4904520;29;20099;-74
2021/06/12 04:13:21;;;;;;;8.48;7.25;;;;;;;14.85;75.07;95846.47;4901367;29;20047;-74
2021/06/12 04:15:46;;;;;;;10.20;7.25;;;;;;;14.84;74.96;95853.66;4895452;29;20092;-74
2021/06/12 04:18:13;;;;;;;9.98;7.60;;;;;;;14.89;75.09;95852.78;4898853;29;20040;-73
2021/06/12 04:20:39;;;;;;;9.35;7.50;;;;;;;14.98;74.21;95855.56;4926367;29;20067;-73
2021/06/12 04:23:05;;;;;;;8.68;7.32;;;;;;;14.99;74.55;95854.50;4912648;29;20090;-74
2021/06/12 04:25:32;;;;;;;9.90;7.10;;;;;;;15.10;74.25;95852.47;4900770;29;20041;-74
2021/06/12 04:27:57;;;;;;;9.13;7.70;;;;;;;15.07;74.18;95859.94;4913669;29;20040;-73
2021/06/12 04:30:23;;;;;;;9.90;7.50;;;;;;;15.15;73.91;95855.03;4912142;29;20044;-73
2021/06/12 04:32:49;;;;;;;9.93;7.47;;;;;;;15.18;74.00;95859.75;4895468;29;20045;-73
2021/06/12 04:35:16;;;;;;;10.50;7.65;;;;;;;15.17;74.04;95858.19;4895244;29;20498;-73
2021/06/12 04:37:43;;;;;;;9.60;7.30;;;;;;;15.23;73.84;95860.47;4895147;29;20057;-74
2021/06/12 04:40:11;;;;;;;11.82;7.80;;;;;;;15.32;73.36;95865.88;4895087;29;20048;-73
2021/06/12 04:42:36;;;;;;;9.38;7.20;;;;;;;15.32;73.37;95865.09;4919169;29;20044;-74
2021/06/12 04:45:03;;;;;;;9.25;7.20;;;;;;;15.40;73.24;95865.22;4912623;29;20072;-74
2021/06/12 04:47:29;;;;;;;12.05;7.30;;;;;;;15.47;73.19;95858.75;4900321;29;20047;-73
2021/06/12 04:49:55;;;;;;;8.82;7.10;;;;;;;15.49;73.33;95864.56;4915513;29;20403;-74
2021/06/12 04:52:20;;;;;;;11.13;7.72;;;;;;;15.57;72.60;95861.22;4905963;29;20064;-74
2021/06/12 04:54:46;;;;;;;14.85;7.03;;;;;;;15.68;72.79;95857.31;4903881;29;20041;-74
2021/06/12 04:57:12;;;;;;;10.05;7.10;;;;;;;15.76;72.03;95859.28;4901672;29;20060;-74
2021/06/12 04:59:38;;;;;;;10.40;7.15;;;;;;;15.92;71.73;95851.09;4933025;29;20084;-74
2021/06/12 05:02:03;;;;;;;9.27;7.20;;;;;;;15.98;71.70;95857.06;4906157;29;20052;-74
2021/06/12 05:04:29;;;;;;;11.05;7.03;;;;;;;16.04;71.08;95859.31;4929994;29;20051;-74
2021/06/12 05:06:54;;;;;;;9.35;7.07;;;;;;;16.15;71.16;95859.13;4928170;29;20115;-73
2021/06/12 05:09:20;;;;;;;9.95;7.10;;;;;;;16.26;70.84;95865.81;4895346;29;20048;-73
2021/06/12 05:11:46;;;;;;;10.05;6.70;;;;;;;16.36;70.07;95860.28;4903135;29;20044;-74
2021/06/12 05:14:12;;;;;;;8.73;6.60;;;;;;;16.51;69.52;95867.16;4895093;29;20131;-73
2021/06/12 05:16:39;;;;;;;8.50;6.65;;;;;;;16.58;69.25;95872.06;4920491;29;20512;-73
2021/06/12 05:19:04;;;;;;;8.23;6.50;;;;;;;16.66;68.88;95868.69;4910719;29;20120;-73
2021/06/12 05:21:31;;;;;;;9.00;6.88;;;;;;;16.73;68.33;95871.72;4895351;29;21462;-74
2021/06/12 05:23:58;;;;;;;9.82;6.95;;;;;;;16.70;68.56;95864.34;4917043;29;20080;-74
2021/06/12 05:26:23;;;;;;;8.23;6.72;;;;;;;16.77;68.69;95870.03;4911165;29;20058;-74
2021/06/12 05:28:49;;;;;;;9.10;6.53;;;;;;;16.89;67.29;95861.56;4907754;29;20040;-74
2021/06/12 05:31:14;;;;;;;9.68;6.38;;;;;;;16.93;67.84;95869.72;4909788;29;20470;-74
2021/06/12 05:33:40;;;;;;;9.23;6.80;;;;;;;16.94;67.44;95873.97;4901129;29;20505;-74
2021/06/12 05:36:05;;;;;;;8.27;6.68;;;;;;;17.00;66.94;95872.75;4910114;29;20652;-74
2021/06/12 05:38:32;;;;;;;8.30;6.82;;;;;;;17.08;66.75;95877.34;4902231;29;20056;-74
2021/06/12 05:40:58;;;;;;;8.77;6.95;;;;;;;17.14;66.97;95878.03;4920157;29;20036;-74
2021/06/12 05:43:23;;;;;;;9.57;6.60;;;;;;;17.13;66.90;95882.53;4930075;29;20044;-73
2021/06/12 05:45:49;;;;;;;8.82;6.60;;;;;;;17.21;66.75;95873.06;4921910;29;20036;-73
2021/06/12 05:48:15;;;;;;;8.13;6.35;;;;;;;17.32;66.56;95884.22;4898145;29;20643;-74
2021/06/12 05:50:40;;;;;;;7.93;6.40;;;;;;;17.36;66.76;95874.56;4904938;29;20382;-74
2021/06/12 05:53:06;;;;;;;9.43;6.55;;;;;;;17.46;66.08;95879.63;4897767;29;20387;-73
2021/06/12 05:55:31;;;;;;;8.15;6.47;;;;;;;17.55;65.88;95886.88;4906425;29;20052;-74
2021/06/12 05:57:57;;;;;;;9.43;6.57;;;;;;;17.63;66.00;95883.50;4898764;29;20127;-73
2021/06/12 06:00:23;;;;;;;10.35;6.85;;;;;;;17.78;65.97;95880.41;4911098;29;20040;-74
2021/06/12 06:02:49;;;;;;;8.25;6.22;;;;;;;17.96;64.49;95883.97;4935664;29;20119;-73
2021/06/12 06:05:14;;;;;;;10.35;6.53;;;;;;;18.02;64.55;95884.63;4928680;29;20098;-74
2021/06/12 06:07:40;;;;;;;12.90;6.72;;;;;;;18.14;64.95;95878.72;4926382;29;20102;-74
2021/06/12 06:10:06;;;;;;;8.18;6.72;;;;;;;18.23;64.66;95878.72;4918227;29;20119;-74
2021/06/12 06:12:33;;;;;;;9.07;6.88;;;;;;;18.29;64.23;95877.50;4909637;29;20048;-74
2021/06/12 06:14:59;;;;;;;9.90;6.88;;;;;;;18.38;64.36;95880.19;4897637;29;20036;-73
2021/06/12 06:17:24;;;;;;;8.38;7.10;;;;;;;18.51;63.91;95890.72;4897420;29;20530;-73
2021/06/12 06:19:50;;;;;;;7.95;6.38;;;;;;;18.59;63.81;95881.19;4902539;29;20043;-74
2021/06/12 06:22:15;;;;;;;10.23;6.70;;;;;;;18.67;63.96;95876.94;4917599;29;20047;-74
2021/06/12 06:24:42;;;;;;;11.07;6.82;;;;;;;18.76;63.99;95875.09;4905896;29;20048;-74
2021/06/12 06:27:08;;;;;;;9.65;6.82;;;;;;;18.89;62.78;95872.59;4923054;29;20035;-74
2021/06/12 06:29:34;;;;;;;8.57;7.32;;;;;;;19.01;62.54;95875.44;4912782;29;20045;-74
2021/06/12 06:32:00;;;;;;;9.40;7.53;;;;;;;19.10;61.64;95878.88;4897788;29;20658;-74
2021/06/12 06:34:26;;;;;;;8.93;7.10;;;;;;;19.21;61.97;95879.34;4897247;29;20041;-74
2021/06/12 06:36:51;;;;;;;7.38;6.53;;;;;;;19.28;62.30;95878.84;4904498;29;20159;-74
2021/06/12 06:39:17;;;;;;;12.35;7.13;;;;;;;19.47;59.87;95876.63;4907787;29;20057;-74
2021/06/12 06:41:43;;;;;;;8.68;7.22;;;;;;;19.56;59.49;95874.72;4927273;29;20362;-73
2021/06/12 06:44:08;;;;;;;12.57;7.65;;;;;;;19.67;59.18;95879.72;4899936;29;20458;-73
2021/06/12 06:46:34;;;;;;;9.50;7.13;;;;;;;19.69;59.11;95869.50;4910049;29;20140;-73
2021/06/12 06:49:00;;;;;;;10.45;7.47;;;;;;;19.73;59.81;95868.53;4919198;29;20072;-74
2021/06/12 06:51:25;;;;;;;8.30;6.97;;;;;;;19.81;59.02;95876.88;4896674;29;20579;-74
2021/06/12 06:53:51;;;;;;;10.25;7.35;;;;;;;19.89;58.75;95871.50;4897012;29;20526;-74
2021/06/12 06:56:17;;;;;;;10.13;8.05;;;;;;;19.98;58.50;95878.69;4908226;29;20693;-74
2021/06/12 06:58:42;;;;;;;12.60;7.70;;;;;;;19.98;57.61;95878.69;4904902;29;20095;-74
2021/06/12 07:01:08;;;;;;;10.60;7.65;;;;;;;20.17;57.12;95880.97;4912662;29;20040;-74
2021/06/12 07:03:34;;;;;;;10.43;7.63;;;;;;;20.11;57.90;95877.69;4932319;29;20044;-73
2021/06/12 07:05:59;;;;;;;10.60;7.90;;;;;;;20.17;56.93;95873.75;4914080;29;20058;-73
2021/06/12 07:08:25;;;;;;;10.02;7.53;;;;;;;20.42;56.88;95876.59;4926834;29;20043;-73
2021/06/12 07:10:51;;;;;;;12.02;7.82;;;;;;;20.38;57.11;95875.69;4912683;29;20044;-74
2021/06/12 07:13:21;;;;;;;11.75;7.35;;;;;;;20.46;57.90;95877.53;4902054;29;20415;-73
2021/06/12 07:15:47;;;;;;;9.73;7.47;;;;;;;20.59;56.91;95876.50;4904567;29;20543;-73
2021/06/12 07:18:14;;;;;;;10.85;7.43;;;;;;;20.69;56.64;95879.94;4897100;29;20056;-75
2021/06/12 07:20:41;;;;;;;14.30;7.60;;;;;;;20.73;56.59;95881.63;4908795;29;20095;-74
2021/06/12 07:23:06;;;;;;;11.45;7.95;;;;;;;20.74;56.44;95885.06;4913266;29;20044;-73
2021/06/12 07:25:32;;;;;;;9.18;7.53;;;;;;;20.70;56.68;95886.81;4896998;29;20045;-74
2021/06/12 07:27:58;;;;;;;9.55;7.45;;;;;;;20.75;56.97;95889.31;4896291;29;20457;-74
2021/06/12 07:30:25;;;;;;;10.38;8.10;;;;;;;20.90;56.20;95888.75;4902225;29;20044;-74
2021/06/12 07:32:51;;;;;;;12.70;8.20;;;;;;;20.88;56.32;95877.56;4933854;29;20044;-73
2021/06/12 07:35:16;;;;;;;9.40;7.95;;;;;;;21.00;56.60;95878.75;4916491;29;20055;-74
2021/06/12 07:37:42;;;;;;;9.57;8.10;;;;;;;20.98;56.51;95870.28;4895806;29;20079;-75
2021/06/12 07:40:08;;;;;;;9.57;8.07;;;;;;;21.08;55.94;95867.19;4906009;29;20498;-73
2021/06/12 07:42:34;;;;;;;10.23;8.68;;;;;;;20.96;57.50;95861.78;4923174;29;20045;-73
2021/06/12 07:44:59;;;;;;;10.90;8.35;;;;;;;21.07;56.36;95868.28;4903599;29;20104;-74
2021/06/12 07:47:25;;;;;;;11.50;8.02;;;;;;;21.32;55.28;95868.38;4913889;29;20055;-74
2021/06/12 07:49:51;;;;;;;12.95;8.57;;;;;;;21.60;54.08;95853.31;4904060;29;20487;-73
2021/06/12 07:52:16;;;;;;;10.52;8.50;;;;;;;21.70;52.26;95862.06;4896300;29;20123;-74
2021/06/12 07:54:42;;;;;;;11.77;8.05;;;;;;;21.66;53.46;95850.44;4897421;29;20104;-74
2021/06/12 07:57:08;;;;;;;10.73;7.97;;;;;;;21.75;53.99;95859.16;4896270;29;20048;-75
2021/06/12 07:59:33;;;;;;;12.57;8.38;;;;;;;21.79;52.88;95849.34;4904916;29;20052;-76
2021/06/12 08:01:59;;;;;;;8.68;7.28;;;;;;;21.81;53.92;95857.84;4922390;29;20039;-74
2021/06/12 08:04:25;;;;;;;11.05;8.20;;;;;;;21.78;52.12;95853.16;4923962;29;20048;-74
2021/06/12 08:06:50;;;;;;;13.57;8.98;;;;;;;21.86;51.94;95854.91;4914388;29;20060;-74
2021/06/12 08:09:16;;;;;;;11.00;8.90;;;;;;;21.74;52.62;95857.59;4912875;29;20079;-73
2021/06/12 08:11:42;;;;;;;14.07;8.77;;;;;;;21.57;54.51;95859.34;4917262;29;20498;-73
2021/06/12 08:14:07;;;;;;;11.57;8.80;;;;;;;21.59;53.02;95867.84;4910652;29;20095;-74
2021/06/12 08:16:33;;;;;;;15.00;9.27;;;;;;;21.74;52.59;95857.59;4904018;29;20056;-73
2021/06/12 08:18:59;;;;;;;9.57;8.55;;;;;;;22.05;52.08;95856.28;4908010;29;20443;-74
2021/06/12 08:21:24;;;;;;;13.20;9.40;;;;;;;21.93;52.42;95852.47;4903220;29;20055;-77
2021/06/12 08:23:50;;;;;;;10.00;8.70;;;;;;;22.22;50.72;95861.41;4907989;29;20048;-73
2021/06/12 08:26:16;;;;;;;11.10;8.77;;;;;;;22.08;51.66;95856.41;4928665;29;20044;-74
2021/06/12 08:28:42;;;;;;;12.38;9.13;;;;;;;22.12;50.79;95856.50;4898660;29;20041;-74
2021/06/12 08:31:08;;;;;;;11.35;8.95;;;;;;;22.25;51.60;95855.38;4909314;29;20062;-74
2021/06/12 08:33:34;;;;;;;13.90;9.48;;;;;;;22.37;50.95;95851.16;4918900;29;20116;-74
2021/06/12 08:35:59;;;;;;;9.70;8.52;;;;;;;22.45;50.81;95852.94;4918010;29;20114;-74
2021/06/12 08:38:25;;;;;;;9.82;8.60;;;;;;;22.88;48.65;95858.75;4909718;29;20048;-74
2021/06/12 08:40:51;;;;;;;11.52;8.85;;;;;;;23.14;48.75;95850.31;4902186;29;20048;-74
2021/06/12 08:43:27;;;;;;;12.30;8.50;;;;;;;23.09;48.09;95858.59;4899612;29;20501;-74
2021/06/12 08:45:57;;;;;;;12.48;8.80;;;;;;;22.92;48.02;95849.69;4896631;29;20040;-74
2021/06/12 08:48:24;;;;;;;12.27;8.80;;;;;;;23.16;47.70;95850.75;4908865;29;20362;-75
2021/06/12 08:50:50;;;;;;;10.35;8.35;;;;;;;23.34;45.79;95854.69;4911739;29;20041;-74
2021/06/12 08:53:17;;;;;;;9.68;8.60;;;;;;;23.17;47.46;95849.63;4898490;29;20040;-74
2021/06/12 08:55:44;;;;;;;12.27;9.15;;;;;;;23.18;45.40;95853.88;4911135;29;20174;-74
2021/06/12 08:58:10;;;;;;;15.57;8.38;;;;;;;23.40;45.93;95857.13;4913881;29;20401;-74
2021/06/12 09:00:36;;;;;;;10.10;8.68;;;;;;;23.66;46.54;95864.69;4901099;29;20052;-74
2021/06/12 09:03:22;;;;;;;14.02;9.25;;;;;;;23.77;45.74;95854.22;4895565;29;20495;-75
2021/06/12 09:05:58;;;;;;;10.90;8.85;;;;;;;23.87;45.86;95845.66;4899597;29;20054;-74
2021/06/12 09:08:36;;;;;;;12.73;9.15;;;;;;;23.83;45.72;95848.25;4916115;29;20051;-75
2021/06/12 09:11:05;;;;;;;11.35;9.50;;;;;;;23.80;45.81;95858.91;4929977;29;20050;-73
2021/06/12 09:13:58;;;;;;;11.38;9.23;;;;;;;23.72;44.37;95849.09;4909998;29;20127;-73
2021/06/12 09:16:38;;;;;;;11.10;9.20;;;;;;;23.72;45.72;95862.53;4904187;29;20044;-73
2021/06/12 09:19:12;;;;;;;10.45;8.25;;;;;;;23.92;45.17;95866.13;4917869;29;20430;-72
2021/06/12 09:21:48;;;;;;;13.63;8.93;;;;;;;23.85;44.92;95861.34;4907484;29;20060;-72
2021/06/12 09:24:31;;;;;;;11.85;9.73;;;;;;;23.76;45.19;95858.03;4897802;29;20044;-73
2021/06/12 09:27:02;;;;;;;13.10;9.93;;;;;;;24.03;45.30;95856.41;4914656;29;20044;-73
2021/06/12 09:29:42;;;;;;;12.80;8.95;;;;;;;24.29;44.77;95861.22;4925809;29;20040;-75
2021/06/12 09:32:12;;;;;;;11.90;9.30;;;;;;;24.31;43.70;95861.69;4920949;29;20524;-72
2021/06/12 09:34:38;;;;;;;10.93;9.60;;;;;;;24.23;43.68;95854.56;4909370;29;20040;-72
2021/06/12 09:37:19;;;;;;;12.05;9.23;;;;;;;24.23;43.82;95851.13;4919313;29;20047;-72
2021/06/12 09:40:07;;;;;;;13.65;9.35;;;;;;;24.06;44.43;95863.00;4916120;29;20128;-72
2021/06/12 09:42:47;;;;;;;12.05;9.90;;;;;;;24.14;44.63;95851.31;4904721;29;20075;-72
2021/06/12 09:45:24;;;;;;;12.68;9.52;;;;;;;24.30;44.25;95849.34;4898396;29;20077;-72
2021/06/12 09:47:49;;;;;;;11.52;9.60;;;;;;;24.21;44.50;95851.47;4917404;29;20354;-72
2021/06/12 09:50:21;;;;;;;11.35;9.32;;;;;;;24.19;44.69;95853.72;4935271;29;20076;-72
2021/06/12 09:52:52;;;;;;;11.73;8.88;;;;;;;24.25;43.45;95849.66;4923484;29;20115;-72
2021/06/12 09:55:29;;;;;;;15.05;9.35;;;;;;;24.38;43.51;95844.94;4909059;29;20382;-72
2021/06/12 09:57:58;;;;;;;9.98;8.98;;;;;;;24.65;44.62;95848.63;4935176;29;20177;-72
2021/06/12 10:00:37;;;;;;;11.73;8.88;;;;;;;24.82;43.78;95852.03;4935175;29;20051;-72
2021/06/12 10:03:15;;;;;;;12.05;8.32;;;;;;;24.88;42.01;95847.91;4912249;29;20052;-72
2021/06/12 10:05:41;;;;;;;12.55;8.15;;;;;;;25.13;42.44;95850.31;4902888;29;20040;-73
2021/06/12 10:08:07;;;;;;;9.90;8.55;;;;;;;25.28;41.46;95846.75;4907577;29;21102;-73
2021/06/12 10:10:33;;;;;;;10.77;8.55;;;;;;;25.41;41.32;95844.72;4908041;29;20060;-73
2021/06/12 10:12:59;;;;;;;9.93;8.30;;;;;;;25.52;41.25;95844.94;4898016;29;20041;-72
2021/06/12 10:15:25;;;;;;;11.82;8.45;;;;;;;24.81;41.58;95855.84;4913490;29;20048;-74
2021/06/12 10:17:52;;;;;;;9.60;8.60;;;;;;;24.85;43.57;95862.09;4931325;29;20055;-73
2021/06/12 10:20:23;;;;;;;10.02;7.95;;;;;;;25.25;42.91;95858.25;4915623;29;20052;-72
2021/06/12 10:22:51;;;;;;;9.48;8.30;;;;;;;25.63;41.39;95848.59;4913117;29;20048;-73
2021/06/12 10:25:19;;;;;;;11.45;8.77;;;;;;;25.70;41.52;95851.41;4901638;29;20200;-73
2021/06/12 10:27:45;;;;;;;11.57;8.70;;;;;;;26.15;40.00;95853.66;4905667;29;20040;-72
2021/06/12 10:30:13;;;;;;;9.35;8.27;;;;;;;25.88;40.13;95845.53;4903131;29;20033;-73
2021/06/12 10:32:44;;;;;;;9.95;7.50;;;;;;;25.69;39.90;95862.53;4904748;29;20170;-73
2021/06/12 10:35:14;;;;;;;8.32;7.43;;;;;;;25.89;39.42;95857.88;4896793;29;20033;-73
2021/06/12 10:38:08;;;;;;;11.35;7.90;;;;;;;26.16;38.66;95844.44;4898947;29;20210;-74
2021/06/12 10:40:40;;;;;;;10.27;7.15;;;;;;;26.18;38.83;95858.34;4914109;29;20040;-71
2021/06/12 10:43:35;;;;;;;9.23;7.00;;;;;;;26.66;38.47;95834.34;4896870;29;20044;-72
2021/06/12 10:46:06;;;;;;;8.93;7.20;;;;;;;26.13;38.12;95839.78;4902957;29;20063;-72
2021/06/12 10:48:41;;;;;;;10.27;7.13;;;;;;;27.20;36.91;95835.03;4902821;29;20057;-72
2021/06/12 10:51:09;;;;;;;9.70;6.95;;;;;;;27.59;37.13;95828.47;4899714;29;20115;-72
2021/06/12 10:53:35;;;;;;;10.13;7.22;;;;;;;27.21;37.36;95825.78;4899886;29;20047;-71
2021/06/12 10:56:02;;;;;;;9.98;6.75;;;;;;;26.61;37.79;95829.28;4899035;29;20048;-72
2021/06/12 10:58:31;;;;;;;8.00;6.38;;;;;;;27.59;35.49;95823.06;4900191;29;20438;-71
2021/06/12 11:01:14;;;;;;;8.95;6.55;;;;;;;26.79;37.15;95822.22;4896651;29;20044;-72
2021/06/12 11:04:05;;;;;;;7.18;6.40;;;;;;;27.04;38.09;95821.72;4900180;29;20054;-72
2021/06/12 11:06:55;;;;;;;10.32;6.40;;;;;;;27.64;36.44;95814.59;4914948;29;20044;-72
2021/06/12 11:09:34;;;;;;;13.40;6.50;;;;;;;28.06;34.85;95818.84;4909949;29;20072;-72
2021/06/12 11:12:14;;;;;;;10.80;6.18;;;;;;;28.56;34.71;95817.59;4914221;29;20051;-73
2021/06/12 11:14:57;;;;;;;6.88;5.75;;;;;;;29.07;33.70;95813.97;4897314;29;20052;-73
2021/06/12 11:17:23;;;;;;;6.43;5.60;;;;;;;29.08;32.97;95820.94;4899471;29;20118;-73
2021/06/12 11:20:10;;;;;;;8.27;5.93;;;;;;;29.48;31.70;95805.56;4908570;29;20493;-73
2021/06/12 11:22:37;;;;;;;8.45;6.50;;;;;;;29.16;31.90;95817.06;4922052;29;20450;-73
2021/06/12 11:25:09;;;;;;;8.00;5.38;;;;;;;29.14;31.39;95819.41;4910207;29;20142;-73
2021/06/12 11:27:47;;;;;;;9.23;6.22;;;;;;;28.11;33.76;95806.91;4897300;29;20104;-73
2021/06/12 11:30:21;;;;;;;10.98;5.72;;;;;;;27.76;33.24;95798.13;4906109;29;20051;-74
2021/06/12 11:32:55;;;;;;;;;;;;;;;27.65;34.86;95810.75;4916016;29;20040;-73
2021/06/12 11:35:56;;;;;;;7.20;6.50;;;;;;;26.53;36.22;95798.69;4903987;29;19941;-74